createdAt,value
2019-05-15T00:00:03.528Z,55.05
2019-05-15T00:01:03.513Z,55.18
2019-05-15T00:02:03.527Z,55.46
2019-05-15T00:03:03.492Z,55.59
2019-05-15T00:04:03.496Z,56.00
2019-05-15T00:05:03.471Z,55.77
2019-05-15T00:06:03.463Z,55.28
2019-05-15T00:07:03.448Z,55.28
2019-05-15T00:08:03.442Z,55.38
2019-05-15T00:09:03.435Z,56.20
2019-05-15T00:10:03.420Z,55.59
2019-05-15T00:11:03.405Z,55.79
2019-05-15T00:12:03.396Z,55.79
2019-05-15T00:13:03.383Z,56.30
2019-05-15T00:14:03.375Z,55.28
2019-05-15T00:15:03.362Z,55.41
2019-05-15T00:16:03.347Z,55.62
2019-05-15T00:17:03.336Z,55.72
2019-05-15T00:18:03.330Z,55.62
2019-05-15T00:19:03.445Z,56.34
2019-05-15T00:20:03.350Z,56.54
2019-05-15T00:21:03.302Z,56.02
2019-05-15T00:22:03.277Z,55.85
2019-05-15T00:23:03.266Z,56.05
2019-05-15T00:24:03.299Z,56.54
2019-05-15T00:25:03.244Z,56.43
2019-05-15T00:26:03.239Z,56.87
2019-05-15T00:27:03.228Z,56.85
2019-05-15T00:28:03.213Z,56.98
2019-05-15T00:29:14.818Z,57.28
2019-05-15T00:30:04.207Z,57.18
2019-05-15T00:31:03.179Z,56.77
2019-05-15T00:32:03.184Z,57.08
2019-05-15T00:33:03.155Z,57.18
2019-05-15T00:34:03.152Z,57.10
2019-05-15T00:35:03.153Z,58.34
2019-05-15T00:36:03.128Z,58.44
2019-05-15T00:37:03.119Z,58.23
2019-05-15T00:38:03.104Z,58.75
2019-05-15T00:39:03.095Z,58.54
2019-05-15T00:40:03.090Z,58.85
2019-05-15T00:41:03.065Z,58.67
2019-05-15T00:42:03.100Z,59.06
2019-05-15T00:43:03.046Z,59.08
2019-05-15T00:44:03.038Z,59.16
2019-05-15T00:45:03.032Z,59.06
2019-05-15T00:46:03.013Z,58.78
2019-05-15T00:47:02.998Z,59.19
2019-05-15T00:48:02.991Z,59.19
2019-05-15T00:49:02.979Z,58.87
2019-05-15T00:50:02.975Z,58.16
2019-05-15T00:51:02.954Z,58.98
2019-05-15T00:52:02.960Z,58.57
2019-05-15T00:53:02.933Z,59.08
2019-05-15T00:54:02.920Z,59.42
2019-05-15T00:55:02.921Z,58.87
2019-05-15T00:56:02.901Z,58.91
2019-05-15T00:57:02.888Z,59.01
2019-05-15T00:58:02.878Z,58.70
2019-05-15T00:59:02.863Z,58.87
2019-05-15T01:00:02.861Z,59.22
2019-05-15T01:01:02.841Z,59.31
2019-05-15T01:02:02.836Z,59.01
2019-05-15T01:03:02.819Z,58.70
2019-05-15T01:04:02.808Z,58.91
2019-05-15T01:05:02.809Z,59.31
2019-05-15T01:06:02.798Z,59.93
2019-05-15T01:07:02.776Z,59.55
2019-05-15T01:08:02.764Z,60.99
2019-05-15T01:09:02.774Z,59.93
2019-05-15T01:10:02.753Z,60.37
2019-05-15T01:11:02.729Z,60.37
2019-05-15T01:12:02.720Z,60.17
2019-05-15T01:13:02.707Z,60.17
2019-05-15T01:14:02.708Z,61.91
2019-05-15T01:15:02.698Z,61.19
2019-05-15T01:16:02.676Z,60.89
2019-05-15T01:17:02.664Z,60.99
2019-05-15T01:18:02.651Z,61.91
2019-05-15T01:19:02.641Z,61.94
2019-05-15T01:20:02.644Z,61.84
2019-05-15T01:21:02.619Z,61.94
2019-05-15T01:22:02.611Z,61.84
2019-05-15T01:23:02.602Z,61.94
2019-05-15T01:24:02.584Z,61.12
2019-05-15T01:25:02.586Z,62.35
2019-05-15T01:26:02.562Z,61.74
2019-05-15T01:27:02.555Z,62.15
2019-05-15T01:28:02.544Z,61.33
2019-05-15T01:29:02.528Z,60.71
2019-05-15T01:30:02.517Z,60.71
2019-05-15T01:31:02.515Z,61.12
2019-05-15T01:32:02.493Z,60.61
2019-05-15T01:33:02.486Z,61.15
2019-05-15T01:34:02.478Z,61.15
2019-05-15T01:35:02.474Z,61.33
2019-05-15T01:36:02.461Z,61.56
2019-05-15T01:37:02.454Z,61.35
2019-05-15T01:38:02.430Z,60.84
2019-05-15T01:39:02.415Z,61.46
2019-05-15T01:40:02.406Z,61.53
2019-05-15T05:45:01.014Z,60.47
2019-05-15T05:46:00.993Z,60.58
2019-05-15T05:47:00.981Z,60.27
2019-05-15T05:48:00.972Z,58.61
2019-05-15T05:49:00.962Z,59.01
2019-05-15T05:50:00.955Z,58.17
2019-05-15T05:51:00.937Z,56.63
2019-05-15T05:52:00.929Z,56.61
2019-05-15T05:53:00.917Z,55.38
2019-05-15T05:54:00.904Z,55.97
2019-05-15T05:55:00.910Z,54.95
2019-05-15T05:56:00.881Z,55.74
2019-05-15T05:57:00.870Z,55.13
2019-05-15T05:58:00.861Z,53.27
2019-05-15T05:59:00.845Z,52.86
2019-05-15T06:00:00.845Z,52.45
2019-05-15T06:01:00.968Z,51.12
2019-05-15T06:02:00.856Z,50.59
2019-05-15T06:03:00.805Z,52.32
2019-05-15T06:04:00.791Z,52.83
2019-05-15T06:05:00.789Z,52.29
2019-05-15T06:06:00.769Z,51.68
2019-05-15T06:07:13.823Z,49.24
2019-05-15T06:08:01.745Z,49.11
2019-05-15T06:09:00.732Z,49.01
2019-05-15T06:10:00.734Z,49.62
2019-05-15T06:11:00.733Z,49.52
2019-05-15T06:12:00.747Z,48.38
2019-05-15T06:13:00.686Z,49.29
2019-05-15T06:14:00.679Z,49.50
2019-05-15T06:15:00.675Z,47.64
2019-05-15T06:16:00.659Z,48.86
2019-05-15T06:17:00.645Z,48.15
2019-05-15T06:18:00.632Z,47.34
2019-05-15T06:19:00.644Z,47.11
2019-05-15T06:20:00.621Z,47.62
2019-05-15T06:21:00.602Z,47.39
2019-05-15T06:22:01.155Z,47.60
2019-05-15T06:23:00.582Z,48.21
2019-05-15T06:24:04.504Z,47.17
2019-05-15T06:25:04.892Z,46.15
2019-05-15T06:26:00.540Z,45.42
2019-05-15T06:27:00.538Z,45.52
2019-05-15T06:28:00.653Z,45.42
2019-05-15T06:29:00.533Z,46.53
2019-05-15T06:30:00.503Z,46.64
2019-05-15T06:31:00.931Z,45.40
2019-05-15T06:32:00.475Z,46.01
2019-05-15T06:33:09.045Z,46.11
2019-05-15T06:34:01.489Z,44.59
2019-05-15T06:35:00.438Z,44.46
2019-05-15T06:36:00.438Z,44.67
2019-05-15T06:37:00.418Z,45.07
2019-05-15T06:38:00.403Z,43.32
2019-05-15T06:39:00.397Z,43.93
2019-05-15T06:40:00.381Z,43.43
2019-05-15T06:41:00.380Z,43.51
2019-05-15T06:42:00.358Z,44.32
2019-05-15T06:43:00.370Z,43.41
2019-05-15T06:44:00.346Z,44.22
2019-05-15T06:45:00.326Z,43.99
2019-05-15T06:46:00.330Z,43.38
2019-05-15T06:47:00.305Z,43.79
2019-05-15T06:48:01.596Z,44.10
2019-05-15T06:49:00.287Z,43.08
2019-05-15T06:50:00.273Z,41.64
2019-05-15T06:51:00.261Z,41.64
2019-05-15T06:52:00.256Z,41.83
2019-05-15T06:53:00.238Z,41.32
2019-05-15T06:54:00.235Z,40.41
2019-05-15T06:55:00.211Z,38.79
2019-05-15T06:56:00.205Z,37.47
2019-05-15T06:57:00.190Z,38.59
2019-05-15T06:58:00.175Z,38.37
2019-05-15T06:59:00.177Z,38.46
2019-05-15T07:00:00.154Z,36.87
2019-05-15T07:01:00.213Z,36.14
2019-05-15T07:02:00.139Z,36.04
2019-05-15T07:03:00.122Z,36.34
2019-05-15T07:04:00.117Z,34.62
2019-05-15T07:05:00.101Z,36.04
2019-05-15T07:06:00.162Z,34.92
2019-05-15T07:07:00.075Z,34.42
2019-05-15T07:08:00.064Z,34.42
2019-05-15T07:09:00.066Z,35.24
2019-05-15T07:10:00.046Z,35.14
2019-05-15T07:11:00.038Z,34.74
2019-05-15T07:12:00.020Z,35.35
2019-05-15T07:13:00.011Z,34.53
2019-05-15T07:14:00.006Z,34.31
2019-05-15T07:15:00.007Z,35.22
2019-05-15T07:15:59.977Z,34.62
2019-05-15T07:16:59.969Z,34.42
2019-05-15T07:17:59.954Z,35.22
2019-05-15T07:18:59.951Z,34.42
2019-05-15T07:19:59.929Z,34.42
2019-05-15T07:20:59.958Z,34.82
2019-05-15T07:21:59.912Z,34.01
2019-05-15T07:22:59.895Z,34.40
2019-05-15T07:23:59.903Z,32.59
2019-05-15T07:24:59.872Z,31.88
2019-05-15T07:25:59.861Z,32.29
2019-05-15T07:26:59.862Z,32.91
2019-05-15T07:27:59.836Z,31.70
2019-05-15T07:29:02.217Z,32.41
2019-05-15T07:29:59.815Z,31.70
2019-05-15T07:30:59.807Z,32.20
2019-05-15T07:31:59.792Z,32.71
2019-05-15T07:32:59.781Z,31.99
2019-05-15T07:34:00.024Z,32.39
2019-05-15T07:34:59.766Z,32.29
2019-05-15T07:35:59.752Z,31.38
2019-05-15T07:36:59.734Z,32.00
2019-05-15T07:37:59.726Z,31.78
2019-05-15T07:38:59.711Z,31.99
2019-05-15T07:39:59.710Z,32.39
2019-05-15T07:41:04.022Z,32.29
2019-05-15T07:41:59.680Z,31.78
2019-05-15T07:42:59.675Z,31.58
2019-05-15T07:43:59.660Z,32.39
2019-05-15T07:44:59.656Z,32.09
2019-05-15T07:45:59.634Z,31.88
2019-05-15T07:46:59.624Z,31.48
2019-05-15T07:47:59.612Z,32.31
2019-05-15T07:48:59.601Z,31.78
2019-05-15T07:49:59.598Z,32.41
2019-05-15T07:50:59.640Z,32.00
2019-05-15T07:51:59.567Z,31.68
2019-05-15T07:52:59.574Z,30.57
2019-05-15T07:54:02.547Z,31.07
2019-05-15T07:54:59.547Z,31.38
2019-05-15T07:56:01.132Z,32.09
2019-05-15T07:56:59.514Z,31.57
2019-05-15T07:57:59.568Z,31.77
2019-05-15T07:58:59.490Z,32.38
2019-05-15T07:59:59.489Z,32.07
2019-05-15T08:00:59.474Z,32.07
2019-05-15T08:01:59.475Z,31.76
2019-05-15T08:02:59.449Z,32.36
2019-05-15T08:04:20.498Z,32.45
2019-05-15T08:05:00.431Z,30.93
2019-05-15T08:06:02.984Z,30.22
2019-05-15T08:06:59.464Z,30.63
2019-05-15T08:07:59.392Z,31.43
2019-05-15T08:08:59.421Z,30.43
2019-05-15T08:09:59.514Z,29.61
2019-05-15T08:10:59.419Z,29.82
2019-05-15T08:12:02.805Z,30.63
2019-05-15T08:12:59.332Z,29.92
2019-05-15T08:13:59.322Z,30.12
2019-05-15T08:14:59.341Z,30.02
2019-05-15T08:15:59.307Z,30.02
2019-05-15T08:16:59.443Z,31.23
2019-05-15T08:18:08.529Z,31.34
2019-05-15T08:19:00.263Z,30.11
2019-05-15T08:19:59.270Z,30.00
2019-05-15T08:20:59.244Z,28.59
2019-05-15T08:21:59.228Z,29.50
2019-05-15T08:22:59.218Z,29.91
2019-05-15T08:23:59.250Z,30.91
2019-05-15T08:24:59.301Z,29.89
2019-05-15T08:25:59.208Z,30.30
2019-05-15T08:26:59.175Z,30.09
2019-05-15T08:27:59.338Z,29.99
2019-05-15T08:28:59.153Z,28.78
2019-05-15T08:29:59.145Z,29.28
2019-05-15T08:30:59.163Z,28.78
2019-05-15T08:31:59.291Z,28.56
2019-05-15T08:32:59.149Z,27.96
2019-05-15T08:34:12.636Z,28.77
2019-05-15T08:35:00.087Z,27.76
2019-05-15T08:35:59.088Z,28.06
2019-05-15T08:36:59.183Z,27.66
2019-05-15T08:37:59.050Z,27.45
2019-05-15T08:38:59.233Z,28.47
2019-05-15T08:39:59.562Z,27.15
2019-05-15T08:40:59.368Z,27.45
2019-05-15T08:41:59.010Z,27.25
2019-05-15T08:43:02.039Z,27.34
2019-05-15T08:43:58.982Z,27.24
2019-05-15T08:44:58.973Z,27.95
2019-05-15T08:45:58.972Z,27.64
2019-05-15T08:46:59.181Z,26.53
2019-05-15T08:47:58.947Z,27.34
2019-05-15T08:48:58.940Z,27.44
2019-05-15T08:49:58.929Z,27.63
2019-05-15T08:50:58.929Z,26.33
2019-05-15T08:51:58.895Z,27.03
2019-05-15T08:52:58.891Z,26.92
2019-05-15T08:53:58.912Z,28.34
2019-05-15T08:54:59.277Z,26.82
2019-05-15T08:55:59.014Z,26.12
2019-05-15T08:56:59.304Z,26.12
2019-05-15T08:58:07.497Z,26.13
2019-05-15T08:58:59.813Z,26.03
2019-05-15T08:59:58.812Z,26.23
2019-05-15T09:00:59.058Z,26.84
2019-05-15T09:01:58.782Z,26.73
2019-05-15T09:02:58.770Z,26.23
2019-05-15T09:03:58.777Z,26.43
2019-05-15T09:04:58.752Z,27.43
2019-05-15T09:05:59.161Z,27.72
2019-05-15T09:07:01.311Z,26.41
2019-05-15T09:07:58.713Z,26.21
2019-05-15T09:08:58.705Z,26.71
2019-05-15T09:09:58.691Z,26.50
2019-05-15T09:10:58.852Z,26.70
2019-05-15T09:11:58.667Z,26.99
2019-05-15T09:12:58.775Z,25.37
2019-05-15T09:13:59.493Z,24.35
2019-05-15T09:14:58.636Z,25.65
2019-05-15T09:15:59.027Z,24.44
2019-05-15T09:16:58.612Z,25.76
2019-05-15T09:18:09.176Z,24.95
2019-05-15T09:18:59.592Z,26.06
2019-05-15T09:19:58.893Z,24.94
2019-05-15T09:20:59.327Z,24.22
2019-05-15T09:21:58.716Z,24.52
2019-05-15T09:22:58.550Z,23.92
2019-05-15T09:23:59.064Z,24.21
2019-05-15T09:24:59.048Z,23.50
2019-05-15T09:25:58.525Z,23.30
2019-05-15T09:26:59.582Z,24.41
2019-05-15T09:27:58.493Z,25.12
2019-05-15T09:28:58.690Z,23.60
2019-05-15T09:29:59.176Z,23.50
2019-05-15T09:30:59.025Z,22.30
2019-05-15T09:31:58.984Z,23.50
2019-05-15T09:32:58.841Z,23.50
2019-05-15T09:33:58.742Z,24.01
2019-05-15T09:34:59.183Z,24.20
2019-05-15T09:35:58.565Z,25.00
2019-05-15T09:36:59.932Z,24.19
2019-05-15T09:37:58.472Z,23.57
2019-05-15T09:38:58.656Z,22.07
2019-05-15T09:39:58.543Z,23.18
2019-05-15T09:40:58.735Z,20.67
2019-05-15T09:41:58.352Z,20.26
2019-05-15T09:42:58.348Z,20.47
2019-05-15T09:43:58.326Z,21.06
2019-05-15T09:44:58.427Z,20.95
2019-05-15T09:45:58.541Z,20.45
2019-05-15T09:46:58.590Z,20.64
2019-05-15T09:47:58.985Z,21.04
2019-05-15T09:48:59.271Z,20.73
2019-05-15T09:49:58.909Z,21.23
2019-05-15T09:50:58.846Z,20.42
2019-05-15T09:51:58.651Z,19.81
2019-05-15T09:52:58.852Z,21.01
2019-05-15T09:53:59.557Z,20.20
2019-05-15T09:54:59.256Z,20.31
2019-05-15T09:55:59.909Z,19.90
2019-05-15T09:56:58.619Z,19.90
2019-05-15T09:57:59.090Z,19.70
2019-05-15T09:58:58.434Z,20.31
2019-05-15T09:59:58.683Z,19.70
2019-05-15T10:00:58.268Z,19.18
2019-05-15T10:01:58.919Z,19.57
2019-05-15T10:02:58.286Z,19.67
2019-05-15T10:03:58.237Z,19.66
2019-05-15T10:05:06.720Z,19.95
2019-05-15T10:05:59.216Z,19.94
2019-05-15T10:06:58.339Z,19.74
2019-05-15T10:07:58.127Z,19.84
2019-05-15T10:08:58.117Z,18.74
2019-05-15T10:09:58.095Z,19.04
2019-05-15T10:10:59.344Z,20.23
2019-05-15T10:11:58.078Z,18.93
2019-05-15T10:12:59.471Z,18.62
2019-05-15T10:13:58.526Z,18.13
2019-05-15T10:14:59.213Z,17.94
2019-05-15T10:15:58.634Z,19.05
2019-05-15T10:16:58.477Z,17.85
2019-05-15T10:17:59.748Z,18.85
2019-05-15T10:18:58.294Z,19.34
2019-05-15T10:19:58.329Z,18.94
2019-05-15T10:20:58.264Z,19.63
2019-05-15T10:21:59.522Z,18.73
2019-05-15T10:22:59.040Z,19.22
2019-05-15T10:23:59.002Z,19.42
2019-05-15T10:24:58.748Z,18.32
2019-05-15T10:25:58.890Z,19.42
2019-05-15T10:26:58.129Z,19.51
2019-05-15T10:27:58.053Z,19.12
2019-05-15T10:28:58.455Z,19.41
2019-05-15T10:29:58.842Z,19.91
2019-05-15T10:31:00.022Z,17.32
2019-05-15T10:31:57.859Z,19.81
2019-05-15T10:32:57.825Z,20.60
2019-05-15T10:33:58.302Z,19.39
2019-05-15T10:34:58.631Z,18.70
2019-05-15T10:35:59.081Z,19.18
2019-05-15T10:36:58.908Z,18.09
2019-05-15T10:37:59.173Z,18.98
2019-05-15T10:38:59.285Z,18.87
2019-05-15T10:39:58.461Z,19.35
2019-05-15T10:41:08.233Z,18.16
2019-05-15T10:41:58.761Z,18.07
2019-05-15T10:42:59.419Z,18.96
2019-05-15T10:44:00.103Z,18.85
2019-05-15T10:44:58.846Z,17.96
2019-05-15T10:45:58.718Z,19.26
2019-05-15T10:46:58.508Z,18.26
2019-05-15T10:47:58.567Z,17.68
2019-05-15T10:48:58.587Z,19.17
2019-05-15T10:49:59.949Z,19.46
2019-05-15T10:51:01.774Z,18.86
2019-05-15T10:51:58.634Z,18.66
2019-05-15T10:52:57.638Z,18.77
2019-05-15T10:53:57.615Z,18.18
2019-05-15T10:54:58.138Z,17.77
2019-05-15T10:55:59.554Z,18.77
2019-05-15T10:57:00.536Z,19.46
2019-05-15T10:57:57.585Z,18.86
2019-05-15T10:58:58.858Z,19.15
2019-05-15T10:59:58.440Z,17.75
2019-05-15T11:01:01.783Z,19.33
2019-05-15T11:01:59.175Z,18.63
2019-05-15T11:02:57.979Z,18.65
2019-05-15T11:03:58.936Z,17.84
2019-05-15T11:04:57.929Z,18.05
2019-05-15T11:05:57.968Z,18.73
2019-05-15T11:06:58.120Z,18.54
2019-05-15T11:07:58.905Z,19.33
2019-05-15T11:08:58.316Z,20.32
2019-05-15T11:09:58.189Z,19.02
2019-05-15T11:10:58.523Z,18.71
2019-05-15T11:11:58.330Z,19.01
2019-05-15T11:12:58.116Z,18.90
2019-05-15T11:14:00.318Z,17.91
2019-05-15T11:14:57.410Z,17.32
2019-05-15T11:15:57.400Z,19.09
2019-05-15T11:16:58.960Z,18.29
2019-05-15T11:17:58.447Z,17.90
2019-05-15T11:18:58.511Z,17.80
2019-05-15T11:19:58.667Z,17.51
2019-05-15T11:20:59.311Z,18.10
2019-05-15T11:21:58.361Z,17.12
2019-05-15T11:22:59.112Z,17.93
2019-05-15T11:23:59.015Z,18.01
2019-05-15T11:24:59.444Z,17.72
2019-05-15T11:25:58.162Z,17.41
2019-05-15T11:26:59.443Z,17.51
2019-05-15T11:27:58.980Z,18.50
2019-05-15T11:28:58.790Z,16.92
2019-05-15T11:29:58.533Z,17.12
2019-05-15T11:30:59.469Z,17.52
2019-05-15T11:31:58.088Z,18.50
2019-05-15T11:32:58.723Z,17.80
2019-05-15T11:33:58.577Z,17.11
2019-05-15T11:34:58.257Z,16.62
2019-05-15T11:36:05.079Z,16.52
2019-05-15T11:36:59.346Z,16.61
2019-05-15T11:37:57.292Z,17.11
2019-05-15T11:38:57.202Z,16.51
2019-05-15T11:39:58.998Z,16.61
2019-05-15T11:40:57.173Z,17.21
2019-05-15T11:41:57.166Z,17.10
2019-05-15T11:42:57.155Z,17.59
2019-05-15T11:43:57.145Z,17.09
2019-05-15T11:44:58.435Z,17.28
2019-05-15T11:45:58.894Z,17.08
2019-05-15T11:46:58.625Z,17.57
2019-05-15T11:47:57.105Z,16.97
2019-05-15T11:48:58.807Z,16.67
2019-05-15T11:49:58.514Z,15.89
2019-05-15T11:50:57.096Z,15.89
2019-05-15T11:52:00.666Z,16.39
2019-05-15T11:52:58.555Z,15.51
2019-05-15T11:53:58.787Z,16.89
2019-05-15T11:54:58.914Z,16.79
2019-05-15T11:55:59.646Z,17.09
2019-05-15T11:56:59.527Z,16.71
2019-05-15T11:57:59.258Z,16.41
2019-05-15T11:58:57.009Z,16.41
2019-05-15T11:59:59.630Z,17.11
2019-05-15T12:00:57.976Z,16.61
2019-05-15T12:01:58.081Z,17.30
2019-05-15T12:02:58.401Z,17.70
2019-05-15T12:03:58.500Z,17.00
2019-05-15T12:04:58.423Z,16.91
2019-05-15T12:05:59.684Z,18.18
2019-05-15T12:07:02.080Z,16.99
2019-05-15T12:07:57.923Z,17.29
2019-05-15T12:08:59.168Z,16.40
2019-05-15T12:09:58.072Z,17.29
2019-05-15T12:10:59.111Z,16.89
2019-05-15T12:11:56.873Z,16.60
2019-05-15T12:12:56.921Z,17.19
2019-05-15T12:13:56.918Z,16.90
2019-05-15T12:14:56.845Z,16.61
2019-05-15T12:15:58.929Z,17.51
2019-05-15T12:17:09.628Z,17.72
2019-05-15T12:17:59.143Z,17.93
2019-05-15T12:19:08.541Z,17.33
2019-05-15T12:20:05.230Z,17.34
2019-05-15T12:20:59.604Z,17.54
2019-05-15T12:21:59.627Z,16.75
2019-05-15T12:22:59.224Z,17.46
2019-05-15T12:23:59.120Z,17.37
2019-05-15T12:25:00.156Z,19.37
2019-05-15T12:25:59.343Z,18.67
2019-05-15T12:27:07.349Z,19.37
2019-05-15T12:27:59.632Z,18.07
2019-05-15T12:28:59.019Z,18.07
2019-05-15T12:29:59.754Z,18.18
2019-05-15T12:30:59.632Z,18.07
2019-05-15T12:31:58.934Z,18.77
2019-05-15T12:33:00.331Z,18.97
2019-05-15T12:33:58.454Z,19.27
2019-05-15T12:35:00.079Z,19.27
2019-05-15T12:35:56.638Z,17.88
2019-05-15T12:36:58.071Z,18.09
2019-05-15T12:37:56.617Z,19.18
2019-05-15T12:38:56.608Z,20.60
2019-05-15T12:59:58.222Z,19.51
2019-05-15T13:00:57.919Z,21.09
2019-05-15T13:01:58.510Z,19.70
2019-05-15T13:02:59.017Z,19.20
2019-05-15T13:03:57.987Z,19.59
2019-05-15T13:04:56.332Z,19.20
2019-05-15T13:05:56.328Z,20.31
2019-05-15T13:07:12.272Z,19.80
2019-05-15T13:07:57.297Z,19.61
2019-05-15T13:08:56.287Z,19.21
2019-05-15T13:09:57.984Z,19.50
2019-05-15T13:10:56.275Z,19.79
2019-05-15T13:11:56.258Z,17.80
2019-05-15T13:13:04.174Z,19.20
2019-05-15T13:13:59.077Z,19.10
2019-05-15T13:14:58.884Z,19.31
2019-05-15T13:15:58.702Z,19.40
2019-05-15T13:16:58.630Z,19.79
2019-05-15T13:17:59.512Z,20.28
2019-05-15T13:18:56.186Z,19.87
2019-05-15T13:19:58.507Z,19.46
2019-05-15T13:20:59.177Z,19.14
2019-05-15T13:21:57.935Z,19.13
2019-05-15T13:22:56.143Z,17.83
2019-05-15T13:23:56.121Z,17.33
2019-05-15T13:24:58.681Z,17.61
2019-05-15T13:25:58.770Z,17.71
2019-05-15T13:26:58.222Z,17.60
2019-05-15T13:27:57.990Z,17.21
2019-05-15T13:28:58.330Z,17.89
2019-05-15T13:29:58.249Z,18.18
2019-05-15T13:30:56.052Z,17.57
2019-05-15T13:31:58.281Z,17.66
2019-05-15T13:32:58.601Z,18.05
2019-05-15T13:33:58.570Z,17.16
2019-05-15T13:34:59.268Z,16.95
2019-05-15T13:35:58.435Z,16.64
2019-05-15T13:36:55.982Z,16.85
2019-05-15T13:37:58.470Z,17.43
2019-05-15T13:38:57.869Z,16.83
2019-05-15T13:39:58.526Z,17.42
2019-05-15T13:40:55.943Z,17.13
2019-05-15T13:41:55.923Z,16.85
2019-05-15T13:42:55.913Z,18.04
2019-05-15T13:43:58.208Z,18.02
2019-05-15T13:44:58.511Z,18.31
2019-05-15T13:45:57.954Z,17.92
2019-05-15T13:46:57.993Z,18.41
2019-05-15T13:47:55.859Z,17.83
2019-05-15T13:48:55.845Z,18.24
2019-05-15T13:49:55.833Z,18.15
2019-05-15T13:50:55.832Z,18.85
2019-05-15T13:51:55.815Z,19.26
2019-05-15T13:52:55.801Z,18.97
2019-05-15T13:53:55.795Z,19.27
2019-05-15T13:54:55.782Z,19.27
2019-05-15T13:55:55.786Z,20.07
2019-05-15T13:56:58.065Z,19.68
2019-05-15T13:57:57.933Z,19.79
2019-05-15T13:58:55.736Z,19.39
2019-05-15T13:59:55.730Z,19.19
2019-05-15T14:00:58.517Z,18.60
2019-05-15T14:01:55.711Z,19.68
2019-05-15T14:02:55.694Z,19.38
2019-05-15T14:03:55.705Z,19.17
2019-05-15T14:04:58.127Z,19.07
2019-05-15T14:05:58.126Z,19.26
2019-05-15T14:06:57.781Z,18.75
2019-05-15T14:07:58.167Z,18.35
2019-05-15T14:08:57.969Z,18.73
2019-05-15T14:09:55.619Z,18.43
2019-05-15T14:10:55.619Z,18.43
2019-05-15T14:11:55.600Z,18.33
2019-05-15T14:12:55.586Z,19.04
2019-05-15T14:13:55.583Z,18.46
2019-05-15T14:14:58.039Z,18.27
2019-05-15T14:15:58.080Z,18.99
2019-05-15T14:16:55.545Z,19.20
2019-05-15T14:17:57.693Z,19.50
2019-05-15T14:18:55.523Z,19.20
2019-05-15T14:19:57.932Z,19.81
2019-05-15T14:20:55.506Z,19.71
2019-05-15T14:21:55.508Z,20.02
2019-05-15T14:22:55.497Z,19.64
2019-05-15T14:23:55.469Z,20.03
2019-05-15T14:24:55.462Z,19.73
2019-05-15T14:25:55.450Z,18.93
2019-05-15T14:26:55.453Z,19.41
2019-05-15T14:27:55.430Z,18.63
2019-05-15T14:28:55.426Z,19.42
2019-05-15T14:29:55.407Z,19.92
2019-05-15T14:30:55.400Z,20.70
2019-05-15T14:31:55.399Z,19.51
2019-05-15T14:32:55.699Z,20.78
2019-05-15T14:33:55.376Z,19.68
2019-05-15T14:34:55.354Z,19.58
2019-05-15T14:35:55.343Z,19.87
2019-05-15T14:36:55.343Z,20.17
2019-05-15T14:38:03.637Z,19.37
2019-05-15T14:38:58.589Z,19.85
2019-05-15T14:39:55.302Z,19.35
2019-05-15T14:40:55.292Z,19.36
2019-05-15T14:41:55.291Z,19.85
2019-05-15T14:42:55.268Z,19.55
2019-05-15T14:43:57.711Z,19.55
2019-05-15T14:44:55.249Z,18.95
2019-05-15T14:45:55.238Z,19.65
2019-05-15T14:46:55.235Z,20.03
2019-05-15T14:47:55.230Z,18.86
2019-05-15T14:48:55.206Z,19.17
2019-05-15T14:49:55.199Z,19.96
2019-05-15T14:50:55.184Z,19.48
2019-05-15T14:52:05.772Z,19.98
2019-05-15T14:52:58.413Z,19.70
2019-05-15T14:53:55.196Z,19.60
2019-05-15T14:54:55.142Z,20.72
2019-05-15T14:55:55.142Z,20.92
2019-05-15T14:56:55.142Z,20.53
2019-05-15T14:57:55.117Z,20.62
2019-05-15T14:58:55.101Z,21.10
2019-05-15T14:59:55.091Z,20.70
2019-05-15T15:00:55.084Z,20.60
2019-05-15T15:01:55.091Z,20.68
2019-05-15T15:02:55.068Z,20.49
2019-05-15T15:03:55.049Z,19.60
2019-05-15T15:04:55.036Z,20.40
2019-05-15T15:05:55.073Z,20.21
2019-05-15T15:06:55.022Z,20.63
2019-05-15T15:07:55.027Z,20.53
2019-05-15T15:08:54.999Z,20.33
2019-05-15T15:09:54.985Z,20.53
2019-05-15T15:10:54.999Z,20.63
2019-05-15T15:11:54.991Z,20.92
2019-05-15T15:12:54.961Z,20.01
2019-05-15T15:13:54.942Z,20.81
2019-05-15T15:14:54.939Z,20.70
2019-05-15T15:15:54.922Z,20.61
2019-05-15T15:16:54.911Z,20.51
2019-05-15T15:17:54.906Z,20.70
2019-05-15T15:18:54.893Z,20.52
2019-05-15T15:19:54.889Z,20.43
2019-05-15T15:20:54.867Z,20.94
2019-05-15T15:21:54.859Z,22.33
2019-05-15T15:22:54.989Z,20.86
2019-05-15T15:23:54.929Z,21.47
2019-05-15T15:24:54.926Z,22.49
2019-05-15T15:25:54.811Z,22.41
2019-05-15T15:26:54.803Z,23.72
2019-05-15T15:27:54.803Z,23.75
2019-05-15T15:28:54.778Z,24.57
2019-05-15T15:29:54.768Z,24.10
2019-05-15T15:30:54.757Z,24.52
2019-05-15T15:31:54.752Z,25.83
2019-05-15T15:32:54.742Z,26.34
2019-05-15T15:33:54.724Z,26.35
2019-05-15T15:34:54.715Z,27.27
2019-05-15T15:35:54.704Z,27.37
2019-05-15T15:36:54.696Z,27.58
2019-05-15T15:37:54.713Z,26.27
2019-05-15T15:38:54.669Z,26.98
2019-05-15T15:39:54.658Z,27.59
2019-05-15T15:40:54.647Z,27.09
2019-05-15T15:41:54.636Z,27.50
2019-05-15T15:42:54.640Z,26.41
2019-05-15T15:43:54.616Z,27.01
2019-05-15T15:44:54.603Z,26.92
2019-05-15T15:45:54.601Z,26.92
2019-05-15T15:46:54.583Z,27.22
2019-05-15T15:47:54.594Z,27.83
2019-05-15T15:48:54.574Z,28.03
2019-05-15T15:49:54.551Z,28.03
2019-05-15T15:50:54.539Z,27.64
2019-05-15T15:51:54.530Z,27.54
2019-05-15T15:52:54.525Z,27.44
2019-05-15T15:53:54.505Z,27.64
2019-05-15T15:54:54.492Z,27.84
2019-05-15T15:55:54.481Z,28.34
2019-05-15T15:56:54.470Z,27.84
2019-05-15T15:57:54.474Z,27.66
2019-05-15T15:58:54.451Z,28.76
2019-05-15T15:59:54.456Z,27.56
2019-05-15T16:00:54.437Z,28.07
2019-05-15T16:01:54.435Z,28.27
2019-05-15T16:02:54.443Z,28.77
2019-05-15T16:03:54.393Z,29.17
2019-05-15T16:04:54.383Z,28.67
2019-05-15T16:05:54.372Z,28.47
2019-05-15T16:06:54.375Z,29.17
2019-05-15T16:07:54.346Z,27.97
2019-05-15T16:08:55.894Z,28.97
2019-05-15T16:09:54.329Z,28.49
2019-05-15T16:10:54.314Z,28.69
2019-05-15T16:11:54.307Z,28.90
2019-05-15T16:12:54.294Z,28.50
2019-05-15T16:13:54.305Z,28.00
2019-05-15T16:14:54.271Z,29.71
2019-05-15T16:15:54.260Z,29.81
2019-05-15T16:16:54.248Z,30.11
2019-05-15T16:17:54.238Z,28.20
2019-05-15T16:18:54.238Z,29.00
2019-05-15T16:19:54.215Z,29.61
2019-05-15T16:20:54.205Z,28.70
2019-05-15T16:21:54.197Z,28.40
2019-05-15T16:22:54.180Z,29.02
2019-05-15T16:23:54.188Z,29.61
2019-05-15T16:24:54.166Z,29.02
2019-05-15T16:25:54.147Z,30.22
2019-05-15T16:26:54.143Z,29.62
2019-05-15T16:27:54.129Z,29.62
2019-05-15T16:28:54.129Z,29.82
2019-05-15T16:29:54.101Z,30.04
2019-05-15T16:30:54.086Z,29.13
2019-05-15T16:31:54.077Z,29.72
2019-05-15T16:32:54.066Z,30.04
2019-05-15T16:33:54.071Z,30.44
2019-05-15T16:34:54.046Z,29.94
2019-05-15T16:35:54.097Z,30.15
2019-05-15T16:36:54.019Z,29.94
2019-05-15T16:37:54.018Z,29.43
2019-05-15T16:39:05.057Z,29.53
2019-05-15T16:39:57.809Z,29.55
2019-05-15T16:40:54.033Z,29.95
2019-05-15T16:41:53.965Z,31.04
2019-05-15T16:42:53.959Z,31.85
2019-05-15T16:43:53.957Z,30.94
2019-05-15T16:44:53.935Z,31.04
2019-05-15T16:45:53.927Z,31.16
2019-05-15T16:46:53.908Z,29.94
2019-05-15T16:47:53.913Z,29.95
2019-05-15T16:48:53.929Z,30.15
2019-05-15T16:49:53.881Z,29.85
2019-05-15T16:50:53.865Z,29.75
2019-05-15T16:51:53.884Z,29.85
2019-05-15T16:52:53.841Z,30.55
2019-05-15T16:53:53.844Z,30.05
2019-05-15T16:54:53.843Z,30.86
2019-05-15T16:55:53.817Z,30.15
2019-05-15T16:56:53.805Z,30.76
2019-05-15T16:57:53.785Z,30.55
2019-05-15T16:58:53.798Z,30.15
2019-05-15T16:59:53.777Z,30.96
2019-05-15T17:00:53.764Z,30.27
2019-05-15T17:01:53.744Z,30.98
2019-05-15T17:03:08.670Z,29.96
2019-05-15T17:03:54.730Z,30.07
2019-05-15T17:04:53.705Z,30.57
2019-05-15T17:05:53.710Z,30.99
2019-05-15T17:06:53.751Z,29.78
2019-05-15T17:07:53.673Z,29.98
2019-05-15T17:08:53.670Z,29.98
2019-05-15T17:09:53.655Z,30.68
2019-05-15T17:10:53.660Z,30.58
2019-05-15T17:11:53.636Z,30.18
2019-05-15T17:12:53.632Z,30.08
2019-05-15T17:13:53.624Z,30.28
2019-05-15T17:14:53.594Z,29.99
2019-05-15T17:15:53.582Z,31.09